Time;durP1;ratioP1;P1;durP2;ratioP2;P2;SDS_P1;SDS_P2;PMS_P1;PMS_P2;Temp;Humidity;BMP_temperature;BMP_pressure;BME280_temperature;BME280_humidity;BME280_pressure;Samples;Min_cycle;Max_cycle;Signal;HPM_P1;HPM_P2
2024/02/03 00:02:18;;;;;;;;;15.50;10.00;;;;;21.79;46.90;103074.72;5096806;27;45400;-79
2024/02/03 00:04:43;;;;;;;;;11.50;11.00;;;;;21.80;46.58;103071.09;5096845;27;45487;-79
2024/02/03 00:07:09;;;;;;;;;10.50;10.50;;;;;21.80;46.77;103070.25;5096671;27;45408;-79
2024/02/03 00:09:34;;;;;;;;;8.33;8.33;;;;;21.73;47.18;103067.25;5096717;27;45660;-79
2024/02/03 00:12:00;;;;;;;;;11.00;11.00;;;;;21.79;46.46;103082.66;5078397;27;45381;-78
2024/02/03 00:14:25;;;;;;;;;13.67;9.33;;;;;21.78;46.81;103080.97;5096477;27;46813;-79
2024/02/03 00:16:51;;;;;;;;;11.67;10.67;;;;;21.77;46.99;103076.66;5096369;27;45322;-78
2024/02/03 00:19:16;;;;;;;;;9.67;8.00;;;;;21.76;46.92;103080.25;5094972;27;45508;-79
2024/02/03 00:21:42;;;;;;;;;9.00;7.67;;;;;21.75;46.53;103073.28;5095160;27;45437;-79
2024/02/03 00:24:07;;;;;;;;;11.00;9.67;;;;;21.75;46.51;103083.88;5095788;27;46108;-79
2024/02/03 00:26:33;;;;;;;;;8.00;8.00;;;;;21.73;46.44;103076.03;5096130;27;45432;-79
2024/02/03 00:28:58;;;;;;;;;9.67;9.67;;;;;21.63;46.75;103059.19;5096530;27;45631;-79
2024/02/03 00:31:23;;;;;;;;;11.67;10.00;;;;;21.73;46.89;103072.53;5096339;27;45590;-79
2024/02/03 00:33:49;;;;;;;;;9.00;9.00;;;;;21.74;46.70;103074.22;5096485;27;46976;-79
2024/02/03 00:36:25;;;;;;;;;9.00;9.00;;;;;21.73;46.40;103068.09;5096168;27;45510;-80
2024/02/03 00:38:51;;;;;;;;;10.75;9.25;;;;;21.72;46.40;103066.41;5096103;27;45375;-79
2024/02/03 00:41:16;;;;;;;;;9.00;9.00;;;;;21.73;46.61;103061.94;5096272;27;45476;-80
2024/02/03 00:43:42;;;;;;;;;4.00;4.00;;;;;21.67;46.70;103052.72;5096230;27;46881;-79
2024/02/03 00:46:08;;;;;;;;;10.00;9.25;;;;;21.72;46.75;103052.31;5096140;27;45308;-79
2024/02/03 00:48:34;;;;;;;;;10.00;9.00;;;;;21.66;46.44;103045.72;5096488;27;45349;-79
2024/02/03 00:50:59;;;;;;;;;9.00;7.00;;;;;21.66;46.86;103058.97;5096081;27;45500;-79
2024/02/03 00:53:24;;;;;;;;;7.67;7.33;;;;;21.68;46.18;103053.53;5095730;27;46277;-79
2024/02/03 00:55:50;;;;;;;;;9.00;8.67;;;;;21.65;46.27;103044.00;5096231;27;45362;-79
2024/02/03 00:58:15;;;;;;;;;9.33;8.33;;;;;21.70;46.45;103059.56;5098751;27;45824;-78
2024/02/03 01:00:40;;;;;;;;;9.00;9.00;;;;;21.60;46.32;103039.09;5099722;27;45356;-79
2024/02/03 01:03:06;;;;;;;;;9.00;8.00;;;;;21.61;46.60;103038.13;5099496;27;46116;-79
2024/02/03 01:05:31;;;;;;;;;9.00;7.00;;;;;21.66;46.45;103050.16;5099675;27;45442;-78
2024/02/03 01:07:56;;;;;;;;;9.00;7.67;;;;;21.68;46.34;103050.88;5099411;27;45390;-78
2024/02/03 01:10:22;;;;;;;;;6.67;6.00;;;;;21.66;46.70;103048.34;5099551;27;45415;-79
2024/02/03 01:12:47;;;;;;;;;6.00;6.00;;;;;21.68;46.71;103059.66;5099636;27;46139;-79
2024/02/03 01:15:12;;;;;;;;;6.67;6.67;;;;;21.67;46.17;103055.34;5099665;27;45405;-79
2024/02/03 01:17:38;;;;;;;;;10.33;9.00;;;;;21.68;46.53;103057.03;5099489;27;45602;-78
2024/02/03 01:20:04;;;;;;;;;7.67;7.00;;;;;21.69;46.21;103064.00;5099656;27;45395;-79
2024/02/03 01:22:29;;;;;;;;;10.67;8.67;;;;;21.68;46.48;103061.47;5098974;27;46233;-80
2024/02/03 01:24:54;;;;;;;;;7.67;7.67;;;;;21.68;46.08;103051.72;5099436;27;45260;-79
2024/02/03 01:27:20;;;;;;;;;8.00;7.75;;;;;21.61;46.06;103048.72;5099443;27;45280;-79
2024/02/03 01:29:45;;;;;;;;;9.00;8.00;;;;;21.68;46.09;103043.78;5099457;27;45377;-78
2024/02/03 01:32:10;;;;;;;;;8.00;8.00;;;;;21.68;46.19;103054.38;5099239;27;45279;-78
2024/02/03 01:34:36;;;;;;;;;7.25;6.00;;;;;21.67;46.45;103043.91;5099329;27;45339;-79
2024/02/03 01:37:01;;;;;;;;;9.50;6.50;;;;;21.61;46.50;103021.41;5098835;27;45579;-79
2024/02/03 01:39:26;;;;;;;;;9.67;7.33;;;;;21.48;46.48;103008.31;5099348;27;45347;-79
2024/02/03 01:41:52;;;;;;;;;7.75;7.75;;;;;21.56;46.72;103027.06;5080599;27;46112;-79
2024/02/03 01:44:17;;;;;;;;;5.67;5.67;;;;;21.66;45.97;103036.91;5099139;27;45297;-79
2024/02/03 01:46:44;;;;;;;;;6.00;6.00;;;;;21.68;46.52;103045.56;5099064;27;45377;-78
2024/02/03 01:49:11;;;;;;;;;11.00;9.00;;;;;21.62;45.82;103041.63;5099008;27;45339;-79
2024/02/03 01:51:37;;;;;;;;;7.67;7.00;;;;;21.62;46.40;103039.00;5098366;27;45270;-78
2024/02/03 01:54:03;;;;;;;;;7.00;7.00;;;;;21.64;46.22;103042.34;5098940;27;45405;-79
2024/02/03 01:56:28;;;;;;;;;5.67;5.33;;;;;21.66;46.45;103040.41;5099036;27;45414;-79
2024/02/03 01:58:54;;;;;;;;;7.67;7.00;;;;;21.66;46.34;103048.34;5099087;27;45413;-79
2024/02/03 02:01:20;;;;;;;;;7.00;7.00;;;;;21.58;45.97;103025.13;5098649;27;45960;-80
2024/02/03 02:03:46;;;;;;;;;6.33;5.33;;;;;21.66;46.31;103047.50;5098802;27;45353;-78
2024/02/03 02:06:11;;;;;;;;;11.00;9.00;;;;;21.65;45.82;103046.66;5098421;27;45293;-80
2024/02/03 02:08:39;;;;;;;;;6.67;5.33;;;;;21.62;46.42;103039.00;5098381;27;45435;-79
2024/02/03 02:11:05;;;;;;;;;12.00;7.00;;;;;21.65;45.76;103044.00;5098663;27;45442;-79
2024/02/03 02:13:31;;;;;;;;;8.33;6.67;;;;;21.64;45.76;103042.34;5098458;27;45384;-79
2024/02/03 02:15:56;;;;;;;;;8.50;7.25;;;;;21.57;46.07;103039.34;5098530;27;45451;-80
2024/02/03 02:18:24;;;;;;;;;8.67;7.67;;;;;21.62;46.19;103045.09;5098554;27;45492;-79
2024/02/03 02:20:49;;;;;;;;;7.25;7.00;;;;;21.64;46.38;103052.94;5098006;27;46361;-79
2024/02/03 02:23:14;;;;;;;;;9.00;7.00;;;;;21.64;45.78;103047.66;5097710;27;45592;-80
2024/02/03 02:25:40;;;;;;;;;7.00;6.00;;;;;21.64;46.31;103047.66;5097519;27;45316;-80
2024/02/03 02:28:05;;;;;;;;;7.50;7.00;;;;;21.62;46.09;103039.81;5098464;27;45351;-79
2024/02/03 02:30:30;;;;;;;;;9.33;8.00;;;;;21.65;45.77;103045.84;5098273;27;46073;-80
2024/02/03 02:32:57;;;;;;;;;6.00;6.00;;;;;21.66;45.92;103052.81;5098283;27;45404;-80
2024/02/03 02:35:23;;;;;;;;;6.00;5.00;;;;;21.65;45.77;103051.97;5097966;27;45303;-79
2024/02/03 02:37:48;;;;;;;;;6.33;6.33;;;;;21.63;45.53;103043.31;5098144;27;45472;-80
2024/02/03 02:40:13;;;;;;;;;7.33;6.00;;;;;21.66;46.11;103048.34;5098104;27;45400;-80
2024/02/03 02:42:39;;;;;;;;;6.33;6.33;;;;;21.66;45.66;103044.88;5098176;27;45277;-78
2024/02/03 02:45:04;;;;;;;;;9.00;6.00;;;;;21.64;45.73;103042.34;5098390;27;45356;-78
2024/02/03 02:47:30;;;;;;;;;4.33;3.33;;;;;21.54;46.10;103026.38;5098003;27;45491;-80
2024/02/03 02:49:55;;;;;;;;;5.00;5.00;;;;;21.64;45.71;103039.69;5097468;27;47380;-80
2024/02/03 02:52:21;;;;;;;;;7.00;7.00;;;;;21.62;45.68;103039.00;5097916;27;45375;-79
2024/02/03 02:54:46;;;;;;;;;8.00;7.00;;;;;21.64;45.62;103037.06;5098124;27;45379;-79
2024/02/03 02:57:11;;;;;;;;;7.33;5.67;;;;;21.58;46.10;103029.59;5097906;27;45320;-80
2024/02/03 02:59:37;;;;;;;;;8.00;8.00;;;;;21.55;45.89;103029.81;5097896;27;46134;-79
2024/02/03 03:02:02;;;;;;;;;5.67;5.67;;;;;21.52;45.69;103023.81;5096493;27;45601;-80
2024/02/03 03:04:28;;;;;;;;;5.50;5.50;;;;;21.63;46.08;103032.72;5096257;27;45333;-79
2024/02/03 03:06:53;;;;;;;;;6.33;6.33;;;;;21.62;45.91;103039.81;5097842;27;45223;-80
2024/02/03 03:09:18;;;;;;;;;8.00;7.00;;;;;21.54;45.80;103023.72;5096384;27;48537;-80
2024/02/03 03:11:44;;;;;;;;;7.00;7.00;;;;;21.61;46.07;103038.13;5097658;27;45347;-79
2024/02/03 03:14:09;;;;;;;;;6.67;6.67;;;;;21.52;45.71;103029.13;5097794;27;45505;-79
2024/02/03 03:16:35;;;;;;;;;7.75;6.00;;;;;21.55;45.67;103024.53;5097708;27;45372;-79
2024/02/03 03:19:02;;;;;;;;;5.67;5.67;;;;;21.54;45.82;103025.50;5096666;27;46088;-80
2024/02/03 03:21:27;;;;;;;;;5.67;5.67;;;;;21.62;45.59;103036.34;5096781;27;45393;-80
2024/02/03 03:23:53;;;;;;;;;5.00;5.00;;;;;21.33;45.64;102984.75;5097568;27;45459;-79
2024/02/03 03:26:18;;;;;;;;;7.00;7.00;;;;;21.61;46.10;103034.63;5097426;27;45444;-80
2024/02/03 03:28:43;;;;;;;;;7.00;6.00;;;;;21.61;46.03;103034.63;5097410;27;46128;-80
2024/02/03 03:31:09;;;;;;;;;8.67;7.33;;;;;21.56;45.79;103023.56;5097280;27;45475;-79
2024/02/03 03:33:34;;;;;;;;;8.00;6.00;;;;;21.58;46.13;103030.44;5097202;27;45334;-79
2024/02/03 03:36:00;;;;;;;;;8.00;7.00;;;;;21.60;45.79;103033.78;5097346;27;45308;-79
2024/02/03 03:38:26;;;;;;;;;5.00;5.00;;;;;21.56;45.68;103018.28;5097037;27;46002;-79
2024/02/03 03:40:51;;;;;;;;;6.00;6.00;;;;;21.60;45.58;103020.56;5097280;27;45323;-80
2024/02/03 03:43:17;;;;;;;;;6.00;6.00;;;;;21.58;45.58;103027.78;5097188;27;45392;-80
2024/02/03 03:45:42;;;;;;;;;6.00;6.00;;;;;21.59;46.08;103013.59;5078842;27;45410;-79
2024/02/03 03:48:07;;;;;;;;;6.67;6.00;;;;;21.62;45.60;103015.97;5096257;27;58670;-79
2024/02/03 03:50:33;;;;;;;;;5.67;5.67;;;;;21.61;45.61;103014.31;5096983;27;45459;-79
2024/02/03 03:52:58;;;;;;;;;6.00;6.00;;;;;21.51;45.57;102993.00;5097215;27;45386;-79
2024/02/03 03:55:24;;;;;;;;;6.33;6.33;;;;;21.55;45.32;102996.25;5097150;27;45429;-80
2024/02/03 03:57:49;;;;;;;;;5.67;5.67;;;;;21.61;45.54;103003.69;5096783;27;46023;-79
2024/02/03 04:00:15;;;;;;;;;5.33;4.00;;;;;21.62;45.62;103001.91;5096706;27;49085;-79
2024/02/03 04:02:40;;;;;;;;;6.67;5.67;;;;;21.56;45.93;102995.28;5096669;27;45327;-79
2024/02/03 04:05:06;;;;;;;;;9.00;7.00;;;;;21.59;45.53;103002.16;5097044;27;45316;-79
2024/02/03 04:07:32;;;;;;;;;6.67;6.67;;;;;21.59;45.54;103002.16;5096847;27;45379;-81
2024/02/03 04:09:57;;;;;;;;;6.00;4.67;;;;;21.39;46.09;102978.13;5096564;27;45421;-79
2024/02/03 04:12:22;;;;;;;;;6.00;6.00;;;;;21.51;45.33;102997.47;5096906;27;45354;-80
2024/02/03 04:14:48;;;;;;;;;7.33;5.33;;;;;21.31;45.36;102964.66;5096790;27;45301;-79
2024/02/03 04:17:14;;;;;;;;;5.33;5.33;;;;;21.61;45.52;103018.75;5095931;27;46016;-79
2024/02/03 04:19:39;;;;;;;;;5.00;5.00;;;;;21.59;45.49;103010.94;5078404;27;45770;-80
2024/02/03 04:22:05;;;;;;;;;5.67;5.67;;;;;21.48;45.63;102992.41;5096601;27;45358;-79
2024/02/03 04:24:30;;;;;;;;;7.67;6.00;;;;;21.55;45.96;103009.47;5078336;27;45522;-79
2024/02/03 04:26:55;;;;;;;;;7.33;6.00;;;;;21.60;45.89;103009.09;5096357;27;47309;-79
2024/02/03 04:29:21;;;;;;;;;5.33;5.33;;;;;21.60;45.55;103007.31;5096537;27;45337;-79
2024/02/03 04:31:46;;;;;;;;;8.00;6.00;;;;;21.60;45.97;103006.47;5095991;27;45303;-79
2024/02/03 04:34:11;;;;;;;;;7.00;6.00;;;;;21.60;45.53;103007.31;5096677;27;45359;-79
2024/02/03 04:36:37;;;;;;;;;5.00;5.00;;;;;21.59;45.40;103008.28;5096002;27;47021;-79
2024/02/03 04:39:04;;;;;;;;;5.00;5.00;;;;;21.56;45.46;103000.59;5096256;27;45374;-79
2024/02/03 04:41:29;;;;;;;;;7.33;6.67;;;;;21.59;45.47;102999.50;5096592;27;45433;-79
2024/02/03 04:43:55;;;;;;;;;6.33;5.00;;;;;21.59;45.71;102999.50;5096380;27;45340;-79
2024/02/03 04:46:20;;;;;;;;;6.67;5.67;;;;;21.50;45.65;102987.81;5095903;27;45465;-80
2024/02/03 04:48:46;;;;;;;;;4.67;4.67;;;;;21.50;45.47;102985.19;5096239;27;45701;-79
2024/02/03 04:51:12;;;;;;;;;5.67;5.67;;;;;21.58;45.45;102996.00;5096207;27;45414;-79
2024/02/03 04:53:39;;;;;;;;;4.33;4.33;;;;;21.58;45.32;102992.50;5096377;27;45367;-79
2024/02/03 04:56:06;;;;;;;;;6.33;4.67;;;;;21.53;45.41;102984.94;5096054;27;46125;-80
2024/02/03 04:58:31;;;;;;;;;7.00;6.00;;;;;21.59;45.68;102989.75;5096041;27;45383;-79
2024/02/03 05:00:57;;;;;;;;;8.00;7.33;;;;;21.52;45.33;102976.13;5095657;27;45301;-80
2024/02/03 05:03:22;;;;;;;;;6.33;5.00;;;;;21.57;45.89;102975.75;5096232;27;45399;-79
2024/02/03 05:05:48;;;;;;;;;5.00;5.00;;;;;21.56;45.35;102982.03;5095639;27;53225;-79
2024/02/03 05:08:13;;;;;;;;;5.33;4.00;;;;;21.59;45.84;102979.16;5095952;27;45292;-79
2024/02/03 05:10:38;;;;;;;;;6.33;5.00;;;;;21.59;45.30;102976.50;5095981;27;45481;-79
2024/02/03 05:13:04;;;;;;;;;5.33;5.33;;;;;21.48;45.85;102969.44;5095514;27;52167;-80
2024/02/03 05:15:29;;;;;;;;;8.67;5.00;;;;;21.47;45.73;102962.44;5095410;27;46237;-80
2024/02/03 05:17:54;;;;;;;;;5.00;5.00;;;;;21.46;45.24;102959.91;5095936;27;45339;-80
2024/02/03 05:20:19;;;;;;;;;5.00;5.00;;;;;21.46;45.70;102960.78;5095818;27;45345;-80
2024/02/03 05:22:47;;;;;;;;;6.67;6.00;;;;;21.56;45.59;102973.25;5095605;27;52271;-80
2024/02/03 05:25:14;;;;;;;;;7.33;5.00;;;;;21.50;45.27;102964.84;5095702;27;46209;-80
2024/02/03 05:27:40;;;;;;;;;5.00;5.00;;;;;21.60;45.78;102969.38;5095560;27;45447;-79
2024/02/03 05:30:06;;;;;;;;;4.67;4.67;;;;;21.55;45.74;102969.75;5095411;27;45386;-79
2024/02/03 05:32:31;;;;;;;;;5.00;5.00;;;;;21.56;45.18;102954.72;5095810;27;45562;-79
2024/02/03 05:34:56;;;;;;;;;7.00;6.33;;;;;21.60;45.34;102969.38;5095157;27;54562;-79
2024/02/03 05:37:21;;;;;;;;;6.00;6.00;;;;;21.55;45.80;102950.38;5094811;27;67312;-79
2024/02/03 05:39:47;;;;;;;;;7.00;5.33;;;;;21.60;45.45;102953.47;5095618;27;45385;-79
2024/02/03 05:42:12;;;;;;;;;4.67;4.67;;;;;21.58;45.57;102948.31;5095790;27;45342;-79
2024/02/03 05:44:37;;;;;;;;;4.67;3.67;;;;;21.57;45.24;102949.28;5098298;27;45981;-79
2024/02/03 05:47:03;;;;;;;;;4.00;3.00;;;;;21.45;45.46;102937.03;5098764;27;46912;-79
2024/02/03 05:49:28;;;;;;;;;5.00;5.00;;;;;21.58;45.33;102950.97;5099300;27;45350;-79
2024/02/03 05:51:53;;;;;;;;;5.67;4.00;;;;;21.52;45.76;102949.66;5098563;27;50258;-79
2024/02/03 05:54:19;;;;;;;;;3.67;3.67;;;;;21.58;45.80;102948.31;5097604;27;48346;-80
2024/02/03 05:56:45;;;;;;;;;3.33;3.33;;;;;21.58;45.47;102950.97;5098760;27;48111;-80
2024/02/03 05:59:10;;;;;;;;;4.67;3.00;;;;;21.59;45.36;102954.47;5098737;27;45277;-80
2024/02/03 06:01:36;;;;;;;;;5.00;3.00;;;;;21.58;45.22;102953.63;5098851;27;45453;-79
2024/02/03 06:04:04;;;;;;;;;4.00;4.00;;;;;21.52;45.35;102943.50;5098391;27;59043;-79
2024/02/03 06:06:30;;;;;;;;;4.00;4.00;;;;;21.47;45.67;102937.75;5098514;27;45378;-79
2024/02/03 06:08:55;;;;;;;;;4.33;4.33;;;;;21.58;45.65;102950.13;5098851;27;45373;-80
2024/02/03 06:11:20;;;;;;;;;5.00;4.67;;;;;21.55;45.14;102947.72;5098440;27;51180;-78
2024/02/03 06:13:46;;;;;;;;;4.67;4.67;;;;;21.58;45.77;102950.13;5098294;27;46180;-79
2024/02/03 06:16:11;;;;;;;;;4.00;4.00;;;;;21.55;45.53;102955.66;5098606;27;45763;-80
2024/02/03 06:18:36;;;;;;;;;4.00;4.00;;;;;21.58;45.14;102958.06;5083902;27;53772;-79
2024/02/03 06:21:02;;;;;;;;;3.00;3.00;;;;;21.59;45.56;102955.31;5098011;27;57601;-80
2024/02/03 06:23:27;;;;;;;;;5.00;3.00;;;;;21.59;45.53;102963.25;5098471;27;45394;-79
2024/02/03 06:25:52;;;;;;;;;5.00;3.67;;;;;21.60;45.27;102964.06;5096960;27;48781;-79
2024/02/03 06:28:17;;;;;;;;;5.00;5.00;;;;;21.53;45.51;102947.84;5097662;27;45453;-79
2024/02/03 06:30:43;;;;;;;;;5.00;5.00;;;;;21.54;45.51;102952.19;5098266;27;45406;-79
2024/02/03 06:33:08;;;;;;;;;4.33;3.00;;;;;21.45;45.70;102934.38;5098009;27;54174;-78
2024/02/03 06:35:33;;;;;;;;;4.33;4.33;;;;;21.59;45.26;102959.75;5097698;27;58008;-76
2024/02/03 06:37:59;;;;;;;;;4.00;4.00;;;;;21.60;45.30;102958.78;5098193;27;45331;-78
2024/02/03 06:40:24;;;;;;;;;4.00;3.00;;;;;21.59;45.85;102965.06;5098209;27;45451;-75
2024/02/03 06:42:52;;;;;;;;;5.33;5.33;;;;;21.47;45.31;102953.63;5097282;27;61634;-83
2024/02/03 06:45:17;;;;;;;;;3.00;2.67;;;;;21.50;45.68;102953.41;5098149;27;45293;-77
2024/02/03 06:47:43;;;;;;;;;3.33;3.33;;;;;21.31;45.90;102924.94;5098104;27;45576;-75
2024/02/03 06:50:08;;;;;;;;;8.67;5.00;;;;;21.59;45.25;102973.00;5098108;27;45506;-79
2024/02/03 06:52:34;;;;;;;;;4.00;4.00;;;;;21.58;45.39;102977.47;5098053;27;45343;-75
2024/02/03 06:54:59;;;;;;;;;5.67;4.33;;;;;21.51;45.42;102958.59;5098050;27;45381;-77
2024/02/03 06:57:25;;;;;;;;;3.00;3.00;;;;;21.48;45.45;102950.88;5098190;27;45459;-84
2024/02/03 06:59:50;;;;;;;;;5.33;4.33;;;;;21.51;45.65;102958.59;5098166;27;45395;-84
2024/02/03 07:02:15;;;;;;;;;4.00;3.00;;;;;21.60;46.25;102964.06;5098411;27;45795;-80
2024/02/03 07:04:41;;;;;;;;;5.67;4.00;;;;;21.40;46.28;102930.31;5098065;27;45252;-81
2024/02/03 07:07:06;;;;;;;;;5.67;4.00;;;;;21.51;46.83;102955.94;5098051;27;45325;-85
2024/02/03 07:09:31;;;;;;;;;3.67;3.67;;;;;21.54;47.02;102960.16;5079292;27;49932;-83
2024/02/03 07:11:57;;;;;;;;;6.00;3.00;;;;;21.57;46.85;102961.69;5097819;27;47360;-82
2024/02/03 07:14:22;;;;;;;;;4.67;3.67;;;;;21.65;46.94;102977.78;5079713;27;45570;-76
2024/02/03 07:16:47;;;;;;;;;5.00;4.00;;;;;21.39;47.13;102939.22;5097040;27;56836;-77
2024/02/03 07:19:13;;;;;;;;;12.25;11.00;;;;;21.66;47.50;102981.28;5096843;27;45344;-79
2024/02/03 07:21:38;;;;;;;;;63.75;49.25;;;;;21.53;47.86;102961.09;5097058;27;45372;-77
2024/02/03 07:24:03;;;;;;;;;51.25;40.25;;;;;21.62;47.42;102968.28;5096863;27;50162;-77
2024/02/03 07:26:29;;;;;;;;;50.25;41.75;;;;;21.74;48.08;102981.50;5097441;27;45328;-77
2024/02/03 07:28:54;;;;;;;;;50.75;40.75;;;;;21.61;47.83;102966.63;5095997;27;45457;-78
2024/02/03 07:31:29;;;;;;;;;47.50;39.00;;;;;21.78;47.91;102982.09;5096643;27;45358;-80
2024/02/03 07:33:57;;;;;;;;;49.25;38.75;;;;;21.79;48.29;102994.38;5096471;27;45574;-81
2024/02/03 07:36:23;;;;;;;;;42.00;35.75;;;;;21.81;48.22;102993.28;5095279;27;45512;-79
2024/02/03 07:38:49;;;;;;;;;48.75;36.75;;;;;21.80;48.24;102993.41;5096317;27;45310;-78
2024/02/03 07:41:15;;;;;;;;;44.00;36.00;;;;;21.85;48.33;102993.88;5096714;27;45488;-75
2024/02/03 07:43:41;;;;;;;;;37.25;32.75;;;;;21.87;48.66;102993.72;5096593;27;45348;-76
2024/02/03 07:46:06;;;;;;;;;37.50;33.50;;;;;21.88;48.04;102992.81;5096854;27;45256;-77
2024/02/03 07:48:31;;;;;;;;;39.75;34.25;;;;;21.88;47.83;103000.75;5096949;27;47632;-77
2024/02/03 07:50:57;;;;;;;;;37.25;32.75;;;;;21.68;48.15;102974.88;5096449;27;55970;-80
2024/02/03 07:53:22;;;;;;;;;35.75;32.75;;;;;21.68;48.08;102971.38;5096562;27;45426;-83
2024/02/03 07:55:47;;;;;;;;;31.25;30.50;;;;;21.86;48.23;103006.13;5096940;27;45348;-80
2024/02/03 07:58:13;;;;;;;;;35.75;29.50;;;;;21.92;48.12;103012.78;5097039;27;45418;-62
